sensor_id;sensor_type;location;lat;lon;timestamp;P1;durP1;ratioP1;P2;durP2;ratioP2
20870;SDS011;10595;51.218;3.452;2022-09-11T00:00:56;28.33;;;17.30;;
20870;SDS011;10595;51.218;3.452;2022-09-11T00:03:23;20.63;;;14.33;;
20870;SDS011;10595;51.218;3.452;2022-09-11T00:05:50;21.50;;;15.57;;
20870;SDS011;10595;51.218;3.452;2022-09-11T00:08:17;22.60;;;16.00;;
20870;SDS011;10595;51.218;3.452;2022-09-11T00:10:43;19.87;;;14.43;;
20870;SDS011;10595;51.218;3.452;2022-09-11T00:13:10;25.17;;;19.27;;
20870;SDS011;10595;51.218;3.452;2022-09-11T00:15:38;31.17;;;21.53;;
20870;SDS011;10595;51.218;3.452;2022-09-11T00:18:05;23.60;;;18.73;;
20870;SDS011;10595;51.218;3.452;2022-09-11T00:20:32;37.40;;;21.80;;
20870;SDS011;10595;51.218;3.452;2022-09-11T00:22:59;24.53;;;19.43;;
20870;SDS011;10595;51.218;3.452;2022-09-11T00:25:29;22.97;;;19.13;;
20870;SDS011;10595;51.218;3.452;2022-09-11T00:27:55;23.90;;;17.97;;
20870;SDS011;10595;51.218;3.452;2022-09-11T00:30:21;23.97;;;17.70;;
20870;SDS011;10595;51.218;3.452;2022-09-11T00:32:47;24.60;;;17.20;;
20870;SDS011;10595;51.218;3.452;2022-09-11T00:35:14;21.43;;;16.17;;
20870;SDS011;10595;51.218;3.452;2022-09-11T00:37:40;20.17;;;16.73;;
20870;SDS011;10595;51.218;3.452;2022-09-11T00:40:06;20.40;;;16.70;;
20870;SDS011;10595;51.218;3.452;2022-09-11T00:42:32;32.60;;;21.27;;
20870;SDS011;10595;51.218;3.452;2022-09-11T00:44:59;23.30;;;18.87;;
20870;SDS011;10595;51.218;3.452;2022-09-11T00:47:26;31.87;;;20.40;;
20870;SDS011;10595;51.218;3.452;2022-09-11T00:49:53;28.73;;;20.63;;
20870;SDS011;10595;51.218;3.452;2022-09-11T00:52:22;22.10;;;18.00;;
20870;SDS011;10595;51.218;3.452;2022-09-11T00:54:49;26.33;;;19.63;;
20870;SDS011;10595;51.218;3.452;2022-09-11T00:57:17;21.03;;;17.37;;
20870;SDS011;10595;51.218;3.452;2022-09-11T00:59:45;21.43;;;15.83;;
20870;SDS011;10595;51.218;3.452;2022-09-11T01:02:13;24.50;;;18.30;;
20870;SDS011;10595;51.218;3.452;2022-09-11T01:04:40;35.57;;;21.63;;
20870;SDS011;10595;51.218;3.452;2022-09-11T01:07:06;28.80;;;19.80;;
20870;SDS011;10595;51.218;3.452;2022-09-11T01:09:32;31.90;;;21.77;;
20870;SDS011;10595;51.218;3.452;2022-09-11T01:12:02;25.50;;;20.20;;
20870;SDS011;10595;51.218;3.452;2022-09-11T01:14:39;24.23;;;18.77;;
20870;SDS011;10595;51.218;3.452;2022-09-11T01:17:26;26.17;;;19.87;;
20870;SDS011;10595;51.218;3.452;2022-09-11T01:19:59;26.50;;;18.93;;
20870;SDS011;10595;51.218;3.452;2022-09-11T01:27:44;25.53;;;18.60;;
20870;SDS011;10595;51.218;3.452;2022-09-11T01:38:01;32.93;;;20.70;;
20870;SDS011;10595;51.218;3.452;2022-09-11T01:40:34;34.83;;;21.47;;
20870;SDS011;10595;51.218;3.452;2022-09-11T01:43:04;35.50;;;24.30;;
20870;SDS011;10595;51.218;3.452;2022-09-11T01:45:34;31.53;;;22.40;;
20870;SDS011;10595;51.218;3.452;2022-09-11T01:48:01;31.47;;;21.30;;
20870;SDS011;10595;51.218;3.452;2022-09-11T01:50:27;40.47;;;24.80;;
20870;SDS011;10595;51.218;3.452;2022-09-11T01:52:55;40.80;;;26.60;;
20870;SDS011;10595;51.218;3.452;2022-09-11T01:55:28;33.27;;;24.03;;
20870;SDS011;10595;51.218;3.452;2022-09-11T01:57:55;34.40;;;24.37;;
20870;SDS011;10595;51.218;3.452;2022-09-11T02:00:23;37.83;;;26.13;;
20870;SDS011;10595;51.218;3.452;2022-09-11T02:02:54;41.77;;;27.20;;
20870;SDS011;10595;51.218;3.452;2022-09-11T02:05:25;30.87;;;23.07;;
20870;SDS011;10595;51.218;3.452;2022-09-11T02:07:54;37.63;;;24.13;;
20870;SDS011;10595;51.218;3.452;2022-09-11T02:10:33;28.43;;;22.97;;
20870;SDS011;10595;51.218;3.452;2022-09-11T02:13:06;28.80;;;21.90;;
20870;SDS011;10595;51.218;3.452;2022-09-11T02:15:38;28.87;;;20.83;;
20870;SDS011;10595;51.218;3.452;2022-09-11T02:18:08;29.17;;;21.93;;
20870;SDS011;10595;51.218;3.452;2022-09-11T02:20:36;26.60;;;20.47;;
20870;SDS011;10595;51.218;3.452;2022-09-11T02:23:02;25.00;;;20.77;;
20870;SDS011;10595;51.218;3.452;2022-09-11T02:25:28;23.00;;;19.43;;
20870;SDS011;10595;51.218;3.452;2022-09-11T02:27:54;22.50;;;18.43;;
20870;SDS011;10595;51.218;3.452;2022-09-11T02:30:20;40.40;;;22.37;;
20870;SDS011;10595;51.218;3.452;2022-09-11T02:32:46;23.30;;;17.80;;
20870;SDS011;10595;51.218;3.452;2022-09-11T02:35:12;22.53;;;18.13;;
20870;SDS011;10595;51.218;3.452;2022-09-11T02:37:54;23.03;;;18.53;;
20870;SDS011;10595;51.218;3.452;2022-09-11T02:53:50;24.87;;;19.93;;
20870;SDS011;10595;51.218;3.452;2022-09-11T02:56:34;27.57;;;21.10;;
20870;SDS011;10595;51.218;3.452;2022-09-11T02:59:09;30.63;;;23.00;;
20870;SDS011;10595;51.218;3.452;2022-09-11T03:01:46;26.23;;;21.23;;
20870;SDS011;10595;51.218;3.452;2022-09-11T03:04:12;36.83;;;25.40;;
20870;SDS011;10595;51.218;3.452;2022-09-11T03:06:39;41.13;;;25.83;;
20870;SDS011;10595;51.218;3.452;2022-09-11T03:09:07;36.80;;;25.57;;
20870;SDS011;10595;51.218;3.452;2022-09-11T03:11:33;39.23;;;26.63;;
20870;SDS011;10595;51.218;3.452;2022-09-11T03:13:59;35.00;;;24.80;;
20870;SDS011;10595;51.218;3.452;2022-09-11T03:16:25;32.00;;;23.43;;
20870;SDS011;10595;51.218;3.452;2022-09-11T03:18:51;30.97;;;24.00;;
20870;SDS011;10595;51.218;3.452;2022-09-11T03:21:17;37.47;;;25.70;;
20870;SDS011;10595;51.218;3.452;2022-09-11T03:23:44;34.53;;;25.73;;
20870;SDS011;10595;51.218;3.452;2022-09-11T03:26:10;38.47;;;26.73;;
20870;SDS011;10595;51.218;3.452;2022-09-11T03:28:36;35.40;;;25.63;;
20870;SDS011;10595;51.218;3.452;2022-09-11T03:31:03;37.93;;;27.20;;
20870;SDS011;10595;51.218;3.452;2022-09-11T03:33:30;39.10;;;26.23;;
20870;SDS011;10595;51.218;3.452;2022-09-11T03:35:56;31.03;;;24.20;;
20870;SDS011;10595;51.218;3.452;2022-09-11T03:38:22;29.27;;;22.00;;
20870;SDS011;10595;51.218;3.452;2022-09-11T03:40:48;29.13;;;22.67;;
20870;SDS011;10595;51.218;3.452;2022-09-11T03:43:14;29.77;;;22.87;;
20870;SDS011;10595;51.218;3.452;2022-09-11T03:45:41;35.27;;;26.73;;
20870;SDS011;10595;51.218;3.452;2022-09-11T03:48:07;34.03;;;24.03;;
20870;SDS011;10595;51.218;3.452;2022-09-11T03:50:33;30.97;;;24.00;;
20870;SDS011;10595;51.218;3.452;2022-09-11T03:52:59;28.23;;;22.27;;
20870;SDS011;10595;51.218;3.452;2022-09-11T03:55:25;27.53;;;22.20;;
20870;SDS011;10595;51.218;3.452;2022-09-11T03:57:51;28.87;;;21.20;;
20870;SDS011;10595;51.218;3.452;2022-09-11T04:00:17;29.07;;;22.80;;
20870;SDS011;10595;51.218;3.452;2022-09-11T04:02:43;43.97;;;26.90;;
20870;SDS011;10595;51.218;3.452;2022-09-11T04:05:09;31.33;;;23.80;;
20870;SDS011;10595;51.218;3.452;2022-09-11T04:07:35;30.50;;;23.57;;
20870;SDS011;10595;51.218;3.452;2022-09-11T04:10:02;31.63;;;22.77;;
20870;SDS011;10595;51.218;3.452;2022-09-11T04:12:28;26.47;;;20.77;;
20870;SDS011;10595;51.218;3.452;2022-09-11T04:14:54;25.77;;;20.97;;
20870;SDS011;10595;51.218;3.452;2022-09-11T04:17:21;26.33;;;20.93;;
20870;SDS011;10595;51.218;3.452;2022-09-11T04:19:48;35.37;;;23.80;;
20870;SDS011;10595;51.218;3.452;2022-09-11T04:22:14;40.17;;;25.47;;
20870;SDS011;10595;51.218;3.452;2022-09-11T04:24:40;27.97;;;20.30;;
20870;SDS011;10595;51.218;3.452;2022-09-11T04:27:06;25.60;;;19.70;;
20870;SDS011;10595;51.218;3.452;2022-09-11T04:29:32;23.93;;;19.70;;
20870;SDS011;10595;51.218;3.452;2022-09-11T04:31:58;23.03;;;19.00;;
20870;SDS011;10595;51.218;3.452;2022-09-11T04:34:25;22.47;;;16.87;;
20870;SDS011;10595;51.218;3.452;2022-09-11T04:36:51;20.37;;;16.13;;
20870;SDS011;10595;51.218;3.452;2022-09-11T04:39:19;26.60;;;20.70;;
20870;SDS011;10595;51.218;3.452;2022-09-11T04:41:45;41.20;;;19.97;;
20870;SDS011;10595;51.218;3.452;2022-09-11T04:44:12;18.47;;;16.13;;
20870;SDS011;10595;51.218;3.452;2022-09-11T04:46:38;20.70;;;17.07;;
20870;SDS011;10595;51.218;3.452;2022-09-11T04:49:05;19.77;;;16.20;;
20870;SDS011;10595;51.218;3.452;2022-09-11T04:51:33;19.83;;;16.20;;
20870;SDS011;10595;51.218;3.452;2022-09-11T04:54:01;21.20;;;17.07;;
20870;SDS011;10595;51.218;3.452;2022-09-11T04:56:28;25.23;;;19.00;;
20870;SDS011;10595;51.218;3.452;2022-09-11T04:58:55;33.73;;;20.30;;
20870;SDS011;10595;51.218;3.452;2022-09-11T05:01:22;27.33;;;19.67;;
20870;SDS011;10595;51.218;3.452;2022-09-11T05:03:48;24.87;;;19.73;;
20870;SDS011;10595;51.218;3.452;2022-09-11T05:06:14;27.20;;;20.70;;
20870;SDS011;10595;51.218;3.452;2022-09-11T05:08:45;23.13;;;18.53;;
20870;SDS011;10595;51.218;3.452;2022-09-11T05:11:12;32.13;;;21.63;;
20870;SDS011;10595;51.218;3.452;2022-09-11T05:13:39;70.30;;;23.60;;
20870;SDS011;10595;51.218;3.452;2022-09-11T05:16:06;41.57;;;27.80;;
20870;SDS011;10595;51.218;3.452;2022-09-11T05:18:33;45.67;;;27.83;;
20870;SDS011;10595;51.218;3.452;2022-09-11T05:21:03;45.87;;;27.73;;
20870;SDS011;10595;51.218;3.452;2022-09-11T05:23:30;35.83;;;26.83;;
20870;SDS011;10595;51.218;3.452;2022-09-11T05:26:00;31.63;;;24.37;;
20870;SDS011;10595;51.218;3.452;2022-09-11T05:28:27;31.60;;;24.70;;
20870;SDS011;10595;51.218;3.452;2022-09-11T05:30:53;32.20;;;25.20;;
20870;SDS011;10595;51.218;3.452;2022-09-11T05:33:20;36.60;;;23.87;;
20870;SDS011;10595;51.218;3.452;2022-09-11T05:35:47;29.40;;;22.67;;
20870;SDS011;10595;51.218;3.452;2022-09-11T05:38:15;43.90;;;28.77;;
20870;SDS011;10595;51.218;3.452;2022-09-11T05:40:47;40.57;;;28.87;;
20870;SDS011;10595;51.218;3.452;2022-09-11T05:43:14;37.77;;;26.97;;
20870;SDS011;10595;51.218;3.452;2022-09-11T05:45:41;34.77;;;26.80;;
20870;SDS011;10595;51.218;3.452;2022-09-11T05:48:08;34.60;;;26.03;;
20870;SDS011;10595;51.218;3.452;2022-09-11T05:50:34;36.37;;;25.33;;
20870;SDS011;10595;51.218;3.452;2022-09-11T05:53:00;44.00;;;28.23;;
20870;SDS011;10595;51.218;3.452;2022-09-11T05:55:26;39.47;;;27.53;;
20870;SDS011;10595;51.218;3.452;2022-09-11T05:57:52;36.07;;;23.93;;
20870;SDS011;10595;51.218;3.452;2022-09-11T06:00:19;30.00;;;23.67;;
20870;SDS011;10595;51.218;3.452;2022-09-11T06:02:45;29.03;;;23.40;;
20870;SDS011;10595;51.218;3.452;2022-09-11T06:05:12;32.77;;;25.40;;
20870;SDS011;10595;51.218;3.452;2022-09-11T06:07:39;34.47;;;25.60;;
20870;SDS011;10595;51.218;3.452;2022-09-11T06:10:05;30.23;;;23.90;;
20870;SDS011;10595;51.218;3.452;2022-09-11T06:12:31;29.87;;;24.63;;
20870;SDS011;10595;51.218;3.452;2022-09-11T06:14:57;36.33;;;26.30;;
20870;SDS011;10595;51.218;3.452;2022-09-11T06:17:23;30.47;;;24.50;;
20870;SDS011;10595;51.218;3.452;2022-09-11T06:19:49;34.40;;;25.73;;
20870;SDS011;10595;51.218;3.452;2022-09-11T06:22:15;34.90;;;26.07;;
20870;SDS011;10595;51.218;3.452;2022-09-11T06:24:41;34.87;;;26.77;;
20870;SDS011;10595;51.218;3.452;2022-09-11T06:27:07;35.80;;;27.70;;
20870;SDS011;10595;51.218;3.452;2022-09-11T06:29:33;49.13;;;32.13;;
20870;SDS011;10595;51.218;3.452;2022-09-11T06:31:59;41.50;;;30.30;;
20870;SDS011;10595;51.218;3.452;2022-09-11T06:34:25;44.70;;;31.43;;
20870;SDS011;10595;51.218;3.452;2022-09-11T06:36:51;38.83;;;30.57;;
20870;SDS011;10595;51.218;3.452;2022-09-11T06:39:17;45.50;;;31.63;;
20870;SDS011;10595;51.218;3.452;2022-09-11T06:41:50;42.07;;;30.23;;
20870;SDS011;10595;51.218;3.452;2022-09-11T06:44:18;42.63;;;29.97;;
20870;SDS011;10595;51.218;3.452;2022-09-11T06:46:44;44.53;;;31.30;;
20870;SDS011;10595;51.218;3.452;2022-09-11T06:49:10;40.23;;;30.10;;
20870;SDS011;10595;51.218;3.452;2022-09-11T06:51:36;40.27;;;30.77;;
20870;SDS011;10595;51.218;3.452;2022-09-11T06:54:04;39.00;;;29.83;;
20870;SDS011;10595;51.218;3.452;2022-09-11T06:56:30;39.77;;;29.47;;
20870;SDS011;10595;51.218;3.452;2022-09-11T06:58:56;43.33;;;30.63;;
20870;SDS011;10595;51.218;3.452;2022-09-11T07:01:23;39.13;;;29.30;;
20870;SDS011;10595;51.218;3.452;2022-09-11T07:03:50;42.97;;;31.63;;
20870;SDS011;10595;51.218;3.452;2022-09-11T07:06:21;46.33;;;32.03;;
20870;SDS011;10595;51.218;3.452;2022-09-11T07:08:51;42.37;;;32.47;;
20870;SDS011;10595;51.218;3.452;2022-09-11T07:11:17;44.00;;;32.37;;
20870;SDS011;10595;51.218;3.452;2022-09-11T07:13:44;39.87;;;30.63;;
20870;SDS011;10595;51.218;3.452;2022-09-11T07:16:10;38.27;;;29.53;;
20870;SDS011;10595;51.218;3.452;2022-09-11T07:18:41;36.37;;;27.43;;
20870;SDS011;10595;51.218;3.452;2022-09-11T07:21:08;33.50;;;26.73;;
20870;SDS011;10595;51.218;3.452;2022-09-11T07:23:35;34.00;;;26.73;;
20870;SDS011;10595;51.218;3.452;2022-09-11T07:26:04;33.40;;;27.43;;
20870;SDS011;10595;51.218;3.452;2022-09-11T07:28:31;31.23;;;24.77;;
20870;SDS011;10595;51.218;3.452;2022-09-11T07:33:29;30.17;;;23.17;;
20870;SDS011;10595;51.218;3.452;2022-09-11T07:35:55;32.00;;;22.50;;
20870;SDS011;10595;51.218;3.452;2022-09-11T07:38:21;28.53;;;23.80;;
20870;SDS011;10595;51.218;3.452;2022-09-11T07:40:47;29.20;;;22.10;;
20870;SDS011;10595;51.218;3.452;2022-09-11T07:43:13;25.30;;;22.40;;
20870;SDS011;10595;51.218;3.452;2022-09-11T07:45:39;27.43;;;23.07;;
20870;SDS011;10595;51.218;3.452;2022-09-11T07:48:05;27.93;;;22.90;;
20870;SDS011;10595;51.218;3.452;2022-09-11T07:50:31;28.47;;;23.00;;
20870;SDS011;10595;51.218;3.452;2022-09-11T07:52:57;25.93;;;22.57;;
20870;SDS011;10595;51.218;3.452;2022-09-11T07:55:24;26.97;;;21.37;;
20870;SDS011;10595;51.218;3.452;2022-09-11T07:57:50;23.77;;;20.83;;
20870;SDS011;10595;51.218;3.452;2022-09-11T08:00:16;27.13;;;20.80;;
20870;SDS011;10595;51.218;3.452;2022-09-11T08:02:42;23.77;;;20.60;;
20870;SDS011;10595;51.218;3.452;2022-09-11T08:05:09;20.57;;;18.17;;
20870;SDS011;10595;51.218;3.452;2022-09-11T08:07:35;23.43;;;18.23;;
20870;SDS011;10595;51.218;3.452;2022-09-11T08:10:01;24.20;;;18.13;;
20870;SDS011;10595;51.218;3.452;2022-09-11T08:12:27;27.60;;;19.47;;
20870;SDS011;10595;51.218;3.452;2022-09-11T08:14:53;24.87;;;19.10;;
20870;SDS011;10595;51.218;3.452;2022-09-11T08:17:19;20.57;;;17.67;;
20870;SDS011;10595;51.218;3.452;2022-09-11T08:19:45;21.47;;;17.00;;
20870;SDS011;10595;51.218;3.452;2022-09-11T08:22:11;19.67;;;17.30;;
20870;SDS011;10595;51.218;3.452;2022-09-11T08:24:37;21.77;;;16.87;;
20870;SDS011;10595;51.218;3.452;2022-09-11T08:27:03;16.77;;;14.00;;
20870;SDS011;10595;51.218;3.452;2022-09-11T08:29:30;14.07;;;10.80;;
20870;SDS011;10595;51.218;3.452;2022-09-11T08:31:56;16.60;;;11.40;;
20870;SDS011;10595;51.218;3.452;2022-09-11T08:34:22;15.13;;;10.63;;
20870;SDS011;10595;51.218;3.452;2022-09-11T08:36:48;12.23;;;9.90;;
20870;SDS011;10595;51.218;3.452;2022-09-11T08:39:16;13.93;;;11.23;;
20870;SDS011;10595;51.218;3.452;2022-09-11T08:46:40;8.93;;;8.03;;
20870;SDS011;10595;51.218;3.452;2022-09-11T08:49:14;9.87;;;8.83;;
20870;SDS011;10595;51.218;3.452;2022-09-11T08:51:42;9.27;;;7.93;;
20870;SDS011;10595;51.218;3.452;2022-09-11T08:54:25;9.53;;;7.10;;
20870;SDS011;10595;51.218;3.452;2022-09-11T08:56:58;9.97;;;8.23;;
20870;SDS011;10595;51.218;3.452;2022-09-11T08:59:35;10.70;;;9.20;;
20870;SDS011;10595;51.218;3.452;2022-09-11T09:12:35;10.17;;;6.40;;
20870;SDS011;10595;51.218;3.452;2022-09-11T09:15:10;7.53;;;5.73;;
20870;SDS011;10595;51.218;3.452;2022-09-11T09:17:42;6.93;;;5.40;;
20870;SDS011;10595;51.218;3.452;2022-09-11T09:20:14;5.60;;;3.87;;
20870;SDS011;10595;51.218;3.452;2022-09-11T09:25:13;4.67;;;3.60;;
20870;SDS011;10595;51.218;3.452;2022-09-11T09:27:44;4.77;;;4.00;;
20870;SDS011;10595;51.218;3.452;2022-09-11T09:30:18;7.00;;;4.17;;
20870;SDS011;10595;51.218;3.452;2022-09-11T09:35:17;7.33;;;4.70;;
20870;SDS011;10595;51.218;3.452;2022-09-11T09:37:44;8.17;;;3.80;;
20870;SDS011;10595;51.218;3.452;2022-09-11T09:40:13;8.63;;;4.80;;
20870;SDS011;10595;51.218;3.452;2022-09-11T09:42:49;7.57;;;4.80;;
20870;SDS011;10595;51.218;3.452;2022-09-11T09:45:37;5.90;;;4.43;;
20870;SDS011;10595;51.218;3.452;2022-09-11T09:48:04;8.23;;;5.30;;
20870;SDS011;10595;51.218;3.452;2022-09-11T09:50:34;7.83;;;4.37;;
20870;SDS011;10595;51.218;3.452;2022-09-11T09:53:18;7.40;;;4.30;;
20870;SDS011;10595;51.218;3.452;2022-09-11T09:55:45;6.30;;;4.13;;
20870;SDS011;10595;51.218;3.452;2022-09-11T09:58:12;4.23;;;3.20;;
20870;SDS011;10595;51.218;3.452;2022-09-11T10:00:39;9.20;;;4.10;;
20870;SDS011;10595;51.218;3.452;2022-09-11T10:03:21;5.13;;;3.63;;
20870;SDS011;10595;51.218;3.452;2022-09-11T10:05:49;4.40;;;2.80;;
20870;SDS011;10595;51.218;3.452;2022-09-11T10:08:36;8.87;;;3.40;;
20870;SDS011;10595;51.218;3.452;2022-09-11T10:11:03;6.43;;;3.33;;
20870;SDS011;10595;51.218;3.452;2022-09-11T10:13:31;4.93;;;3.53;;
20870;SDS011;10595;51.218;3.452;2022-09-11T10:15:59;5.67;;;4.10;;
20870;SDS011;10595;51.218;3.452;2022-09-11T10:28:47;7.50;;;4.53;;
20870;SDS011;10595;51.218;3.452;2022-09-11T10:31:14;7.70;;;4.07;;
20870;SDS011;10595;51.218;3.452;2022-09-11T10:33:41;6.80;;;4.73;;
20870;SDS011;10595;51.218;3.452;2022-09-11T10:36:10;7.60;;;4.70;;
20870;SDS011;10595;51.218;3.452;2022-09-11T10:38:44;7.17;;;4.93;;
20870;SDS011;10595;51.218;3.452;2022-09-11T10:43:52;8.03;;;4.70;;
20870;SDS011;10595;51.218;3.452;2022-09-11T10:46:33;7.43;;;4.53;;
20870;SDS011;10595;51.218;3.452;2022-09-11T10:51:28;4.67;;;4.20;;
20870;SDS011;10595;51.218;3.452;2022-09-11T10:56:29;7.23;;;4.00;;
20870;SDS011;10595;51.218;3.452;2022-09-11T10:59:01;5.37;;;3.97;;
20870;SDS011;10595;51.218;3.452;2022-09-11T11:01:29;8.73;;;4.33;;
20870;SDS011;10595;51.218;3.452;2022-09-11T11:03:55;5.80;;;3.50;;
20870;SDS011;10595;51.218;3.452;2022-09-11T11:12:01;5.77;;;2.90;;
20870;SDS011;10595;51.218;3.452;2022-09-11T11:22:18;7.00;;;3.60;;
20870;SDS011;10595;51.218;3.452;2022-09-11T11:25:00;6.43;;;3.90;;
20870;SDS011;10595;51.218;3.452;2022-09-11T11:27:32;5.23;;;3.30;;
20870;SDS011;10595;51.218;3.452;2022-09-11T11:38:33;6.70;;;4.33;;
20870;SDS011;10595;51.218;3.452;2022-09-11T11:40:50;6.70;;;4.30;;
20870;SDS011;10595;51.218;3.452;2022-09-11T11:43:19;6.10;;;3.70;;
20870;SDS011;10595;51.218;3.452;2022-09-11T11:50:40;6.57;;;2.70;;
20870;SDS011;10595;51.218;3.452;2022-09-11T12:03:58;4.37;;;2.80;;
20870;SDS011;10595;51.218;3.452;2022-09-11T12:06:26;3.63;;;2.67;;
20870;SDS011;10595;51.218;3.452;2022-09-11T12:08:53;5.63;;;3.90;;
20870;SDS011;10595;51.218;3.452;2022-09-11T12:11:25;3.27;;;2.97;;
20870;SDS011;10595;51.218;3.452;2022-09-11T12:13:51;4.40;;;2.10;;
20870;SDS011;10595;51.218;3.452;2022-09-11T12:16:19;3.67;;;2.10;;
20870;SDS011;10595;51.218;3.452;2022-09-11T12:19:03;5.57;;;2.53;;
20870;SDS011;10595;51.218;3.452;2022-09-11T12:26:22;5.47;;;3.97;;
20870;SDS011;10595;51.218;3.452;2022-09-11T12:28:48;3.70;;;3.27;;
20870;SDS011;10595;51.218;3.452;2022-09-11T12:31:16;8.03;;;3.80;;
20870;SDS011;10595;51.218;3.452;2022-09-11T12:38:36;6.10;;;3.70;;
20870;SDS011;10595;51.218;3.452;2022-09-11T12:41:12;3.87;;;3.33;;
20870;SDS011;10595;51.218;3.452;2022-09-11T12:51:35;7.30;;;3.50;;
20870;SDS011;10595;51.218;3.452;2022-09-11T12:54:12;5.00;;;3.77;;
20870;SDS011;10595;51.218;3.452;2022-09-11T12:56:44;4.30;;;3.87;;
20870;SDS011;10595;51.218;3.452;2022-09-11T12:59:17;6.07;;;3.23;;
20870;SDS011;10595;51.218;3.452;2022-09-11T13:01:47;6.80;;;3.60;;
20870;SDS011;10595;51.218;3.452;2022-09-11T13:04:14;6.10;;;3.30;;
20870;SDS011;10595;51.218;3.452;2022-09-11T13:06:50;3.60;;;3.30;;
20870;SDS011;10595;51.218;3.452;2022-09-11T13:09:24;5.73;;;3.60;;
20870;SDS011;10595;51.218;3.452;2022-09-11T13:11:55;4.10;;;2.87;;
20870;SDS011;10595;51.218;3.452;2022-09-11T13:16:48;4.20;;;3.50;;
20870;SDS011;10595;51.218;3.452;2022-09-11T13:19:15;6.30;;;3.33;;
20870;SDS011;10595;51.218;3.452;2022-09-11T13:21:44;4.43;;;3.67;;
20870;SDS011;10595;51.218;3.452;2022-09-11T13:24:23;5.20;;;3.27;;
20870;SDS011;10595;51.218;3.452;2022-09-11T13:26:50;6.40;;;3.97;;
20870;SDS011;10595;51.218;3.452;2022-09-11T13:29:20;7.03;;;4.67;;
20870;SDS011;10595;51.218;3.452;2022-09-11T13:31:46;6.27;;;3.33;;
20870;SDS011;10595;51.218;3.452;2022-09-11T13:34:13;7.93;;;4.17;;
20870;SDS011;10595;51.218;3.452;2022-09-11T13:36:40;5.50;;;3.97;;
20870;SDS011;10595;51.218;3.452;2022-09-11T13:39:06;4.37;;;3.17;;
20870;SDS011;10595;51.218;3.452;2022-09-11T13:41:36;5.40;;;4.03;;
20870;SDS011;10595;51.218;3.452;2022-09-11T13:44:05;4.77;;;3.97;;
20870;SDS011;10595;51.218;3.452;2022-09-11T13:46:34;6.00;;;3.77;;
20870;SDS011;10595;51.218;3.452;2022-09-11T13:51:38;6.63;;;4.43;;
20870;SDS011;10595;51.218;3.452;2022-09-11T13:54:07;7.57;;;4.17;;
20870;SDS011;10595;51.218;3.452;2022-09-11T14:01:54;7.43;;;4.40;;
20870;SDS011;10595;51.218;3.452;2022-09-11T14:04:24;5.80;;;4.17;;
20870;SDS011;10595;51.218;3.452;2022-09-11T14:06:51;5.50;;;3.57;;
20870;SDS011;10595;51.218;3.452;2022-09-11T14:09:18;7.37;;;4.07;;
20870;SDS011;10595;51.218;3.452;2022-09-11T14:11:45;5.03;;;3.63;;
20870;SDS011;10595;51.218;3.452;2022-09-11T14:14:12;5.37;;;4.00;;
20870;SDS011;10595;51.218;3.452;2022-09-11T14:16:44;4.80;;;4.30;;
20870;SDS011;10595;51.218;3.452;2022-09-11T14:19:16;4.40;;;3.90;;
20870;SDS011;10595;51.218;3.452;2022-09-11T14:21:43;5.17;;;4.33;;
20870;SDS011;10595;51.218;3.452;2022-09-11T14:26:56;8.67;;;5.87;;
20870;SDS011;10595;51.218;3.452;2022-09-11T14:29:24;7.47;;;5.50;;
20870;SDS011;10595;51.218;3.452;2022-09-11T14:31:52;7.63;;;4.87;;
20870;SDS011;10595;51.218;3.452;2022-09-11T14:34:19;7.93;;;5.93;;
20870;SDS011;10595;51.218;3.452;2022-09-11T14:36:47;7.57;;;5.83;;
20870;SDS011;10595;51.218;3.452;2022-09-11T14:39:32;12.15;;;7.70;;
20870;SDS011;10595;51.218;3.452;2022-09-11T14:42:00;7.17;;;6.47;;
20870;SDS011;10595;51.218;3.452;2022-09-11T14:44:26;10.23;;;7.93;;
20870;SDS011;10595;51.218;3.452;2022-09-11T14:46:53;11.25;;;9.27;;
20870;SDS011;10595;51.218;3.452;2022-09-11T14:49:20;11.38;;;10.13;;
20870;SDS011;10595;51.218;3.452;2022-09-11T14:51:51;11.63;;;8.98;;
20870;SDS011;10595;51.218;3.452;2022-09-11T14:54:18;13.27;;;10.13;;
20870;SDS011;10595;51.218;3.452;2022-09-11T14:56:44;12.13;;;9.38;;
20870;SDS011;10595;51.218;3.452;2022-09-11T14:59:10;14.70;;;10.70;;
20870;SDS011;10595;51.218;3.452;2022-09-11T15:01:37;12.60;;;8.98;;
20870;SDS011;10595;51.218;3.452;2022-09-11T15:04:03;14.23;;;9.00;;
20870;SDS011;10595;51.218;3.452;2022-09-11T15:06:29;11.38;;;9.13;;
20870;SDS011;10595;51.218;3.452;2022-09-11T15:08:55;8.55;;;7.82;;
20870;SDS011;10595;51.218;3.452;2022-09-11T15:11:22;15.43;;;8.60;;
20870;SDS011;10595;51.218;3.452;2022-09-11T15:13:49;11.75;;;8.73;;
20870;SDS011;10595;51.218;3.452;2022-09-11T15:16:15;9.90;;;8.90;;
20870;SDS011;10595;51.218;3.452;2022-09-11T15:18:41;11.40;;;8.73;;
20870;SDS011;10595;51.218;3.452;2022-09-11T15:21:08;9.83;;;8.50;;
20870;SDS011;10595;51.218;3.452;2022-09-11T15:23:34;9.33;;;8.30;;
20870;SDS011;10595;51.218;3.452;2022-09-11T15:26:00;10.07;;;7.13;;
20870;SDS011;10595;51.218;3.452;2022-09-11T15:28:29;8.45;;;7.28;;
20870;SDS011;10595;51.218;3.452;2022-09-11T15:30:56;9.50;;;7.93;;
20870;SDS011;10595;51.218;3.452;2022-09-11T15:33:26;10.75;;;6.20;;
20870;SDS011;10595;51.218;3.452;2022-09-11T15:35:53;5.65;;;5.15;;
20870;SDS011;10595;51.218;3.452;2022-09-11T15:38:20;10.83;;;7.23;;
20870;SDS011;10595;51.218;3.452;2022-09-11T15:40:50;7.40;;;6.47;;
20870;SDS011;10595;51.218;3.452;2022-09-11T15:43:21;8.48;;;6.80;;
20870;SDS011;10595;51.218;3.452;2022-09-11T15:45:47;8.73;;;7.40;;
20870;SDS011;10595;51.218;3.452;2022-09-11T15:48:13;7.37;;;6.30;;
20870;SDS011;10595;51.218;3.452;2022-09-11T15:50:40;10.90;;;6.60;;
20870;SDS011;10595;51.218;3.452;2022-09-11T15:53:06;7.43;;;6.63;;
20870;SDS011;10595;51.218;3.452;2022-09-11T15:55:33;7.30;;;6.47;;
20870;SDS011;10595;51.218;3.452;2022-09-11T15:57:59;8.67;;;6.17;;
20870;SDS011;10595;51.218;3.452;2022-09-11T16:00:26;10.47;;;6.67;;
20870;SDS011;10595;51.218;3.452;2022-09-11T16:02:52;7.90;;;6.90;;
20870;SDS011;10595;51.218;3.452;2022-09-11T16:05:19;7.63;;;6.60;;
20870;SDS011;10595;51.218;3.452;2022-09-11T16:07:47;8.53;;;6.60;;
20870;SDS011;10595;51.218;3.452;2022-09-11T16:10:13;9.23;;;5.80;;
20870;SDS011;10595;51.218;3.452;2022-09-11T16:12:39;9.17;;;7.13;;
20870;SDS011;10595;51.218;3.452;2022-09-11T16:15:05;8.00;;;6.53;;
20870;SDS011;10595;51.218;3.452;2022-09-11T16:17:31;8.93;;;5.97;;
20870;SDS011;10595;51.218;3.452;2022-09-11T16:19:57;8.13;;;7.03;;
20870;SDS011;10595;51.218;3.452;2022-09-11T16:22:23;11.30;;;7.63;;
20870;SDS011;10595;51.218;3.452;2022-09-11T16:24:50;7.50;;;6.80;;
20870;SDS011;10595;51.218;3.452;2022-09-11T16:27:16;9.53;;;8.10;;
20870;SDS011;10595;51.218;3.452;2022-09-11T16:29:42;7.83;;;6.43;;
20870;SDS011;10595;51.218;3.452;2022-09-11T16:32:09;8.00;;;7.20;;
20870;SDS011;10595;51.218;3.452;2022-09-11T16:34:35;9.43;;;7.80;;
20870;SDS011;10595;51.218;3.452;2022-09-11T16:37:01;10.37;;;7.57;;
20870;SDS011;10595;51.218;3.452;2022-09-11T16:39:27;13.97;;;7.73;;
20870;SDS011;10595;51.218;3.452;2022-09-11T16:41:53;8.37;;;6.70;;
20870;SDS011;10595;51.218;3.452;2022-09-11T16:44:19;9.13;;;6.80;;
20870;SDS011;10595;51.218;3.452;2022-09-11T16:46:46;8.10;;;7.37;;
20870;SDS011;10595;51.218;3.452;2022-09-11T16:49:14;8.80;;;7.93;;
20870;SDS011;10595;51.218;3.452;2022-09-11T16:51:40;8.33;;;7.33;;